Rhinelander Oneida County Airport
KRHI : rendu visible

Aérodrome :











RETROUVEZ-NOUS SUR...

 
LOGIN :

S'inscrire | Disclaimer

   EN    FR    IT 

 









Légende :    VFR   VFR Marginal   IFR   IFR Intensif   IFR Très Intensif
Visi : 
Plafond : 
>= 8 km
>= 3000ft
5 à 8 km
1000 à 3000 ft
1500m à 5 km
500 à 1000 ft
800 à 1500m
200 à 500 ft
< 800m
< 200 ft
Symboles :   Orages  Brouillard  Fortes neiges  Fortes précipitations  Vent > 20 kt






- Altitude de l'aérodrome : 1624 ft
- Code IATA : RHI


KRHI - Rhinelander Oneida County

DERNIER METAR :
  • 251653Z AUTO 16008KT 10SM SCT043 BKN065 OVC095 27/17 A2990 RMK AO2 SLP115 T02720167

METARs EXPIRÉS :
  • 251553Z AUTO 19005KT 10SM FEW035 SCT046 SCT055 27/17 A2991 RMK AO2 SLP119 T02670172
  • 251453Z AUTO 20005KT 10SM CLR 25/17 A2992 RMK AO2 SLP123 T02500167 56006

TAF KRHI
Valide du 25 à 13h jusqu'au 26 à 12h UTC


251250Z 2513/2612 21004KT P6SM SCT150
FM251500 17005KT P6SM SCT040 BKN070
TEMPO 2518/2522 1SM TSRA OVC018CB
FM252200 18004KT P6SM SCT040 BKN080
FM260100 16003KT P6SM SCT050 BKN100
FM260800 20003KT 4SM BR BKN100
FIR KZMP / Amérique du Nord



MET'MAP, la Météo Aéronautique d'un coup d'oeil ! - Copyright ORBIFLY Décembre 2007 - Disclaimer

ORBIFLY MET'MAP TEAM :

Programmation & Développement : Alexandra Zaïnal
Sur une idée originale de : Baudouin d'Aumeries
Assistance à la programmation : Marc-Olivier Méhu
Soutien technique & logistique : Manuel Goepfert

Contact : metmap@orbifly.com




SOURCES & CREDITS :

   NOAA       Earth
Advisory